Latest Coastal Weather Observations for Ulladulla

IDN60701

Issued at 8:01 pm EDT Tuesday 24 January 2017 (issued every 10 minutes, with the page automatically refreshed every 10 minutes)

About coastal observations | Map of coastal stations | Coastal observations for NSW | Marine services | Other Formats
Station Details ID: 069138 Name: ULLADULLA AWS Lat: -35.36 Lon: 150.48 Height: 35.7 m
Data from the previous 72 hours. | See also: Recent months at Ulladulla
Date/Time
EDT
Temp
°C
Wind Pressure Rain since
9am
mm
Weather Cloud Vis
km
Sea
Height
m
Swell
Dir  Spd
kts
Gust
kts
hPa Trend Height
m
Period
s
Dir
24/07:30pm 20.7 SSE 10 17 1016.0 - 0.0 - - - - - - -
24/07:00pm 20.8 SSE 9 14 1015.4 - 0.0 - - - - - - -
24/06:30pm 20.9 SSE 8 13 1014.8 - 0.0 - - - - - - -
24/06:00pm 20.9 SSE 9 14 1014.0 - 0.0 - - - - - - -
24/05:30pm 21.2 SSE 10 17 1013.5 - 0.0 - - - - - - -
24/05:00pm 21.6 SSE 10 17 1013.0 - 0.0 - - - - - - -
24/04:30pm - SSE 9 15 1012.8 - 0.0 - - - - - - -
24/04:00pm 21.4 SSE 11 15 1012.4 - 0.0 - - - - - - -
24/03:30pm 21.7 S 14 20 1012.2 - 0.0 - - - - - - -
24/03:00pm 22.4 S 17 21 1011.6 - 0.0 - - - - - - -
24/02:30pm 23.6 S 17 24 1010.8 - 0.0 - - - - - - -
24/02:00pm 23.5 S 16 24 1009.5 - 0.0 - - - - - - -
24/01:32pm 24.6 S 16 29 1007.7 - 0.0 - - - - - - -
24/01:30pm 25.0 S 15 29 1007.4 - 0.0 - - - - - - -
24/01:27pm 27.3 SW 11 29 1007.1 - 0.0 - - - - - - -
24/01:26pm 29.6 SW 9 24 1007.2 - 0.0 - - - - - - -
24/01:00pm 36.0 W 6 14 1006.7 - 0.0 - - - - - - -
24/12:30pm 34.5 W 5 14 1006.8 - 0.0 - - - - - - -
24/12:00pm 35.1 W 5 11 1006.8 - 0.0 - - - - - - -
24/11:30am 33.8 W 7 15 1006.7 - 0.0 - - - - - - -
24/11:00am 33.7 WSW 6 10 1006.1 - 0.0 - - - - - - -
24/10:30am 31.1 SSW 4 10 1005.7 - 0.0 - - - - - - -
24/10:00am 31.6 NW 8 16 1004.7 - 0.0 - - - - - - -
24/09:30am 31.6 NW 9 15 1004.9 - 0.0 - - - - - - -
24/09:00am 31.8 WNW 7 13 1005.2 - 0.0 - - - - - - -
24/08:30am 31.3 WNW 6 11 1005.5 - 0.0 - - - - - - -
24/08:00am 31.6 NW 12 24 1005.0 - 0.0 - - - - - - -
24/07:32am 31.3 NW 15 25 1004.9 - 0.0 - - - - - - -
24/07:30am 31.1 NW 14 24 1004.9 - 0.0 - - - - - - -
24/07:00am 32.0 NW 12 21 1004.6 - 0.0 - - - - - - -
24/06:38am 32.5 NW 15 25 1003.9 - 0.0 - - - - - - -
24/06:30am 32.4 NW 12 19 1004.1 - 0.0 - - - - - - -
24/06:00am 32.1 NNW 10 23 1003.6 - 0.0 - - - - - - -
24/05:30am 30.5 NNW 6 9 1003.6 - 0.0 - - - - - - -
24/05:15am 30.1 NW 6 12 1003.5 - 0.0 - - - - - - -
24/05:00am 24.9 NNW 5 8 1003.2 - 0.0 - - - - - - -
24/04:30am 24.1 N 4 6 1003.1 - 0.0 - - - - - - -
24/04:00am 24.4 NNW 3 5 1003.0 - 0.0 - - - - - - -
24/03:30am 24.2 N 4 9 1003.0 - 0.0 - - - - - - -
24/03:00am 24.0 N 9 11 1003.1 - 0.0 - - - - - - -
24/02:30am 23.5 NNW 7 10 1003.5 - 0.0 - - - - - - -
24/02:00am 23.3 NNW 6 10 1003.7 - 0.0 - - - - - - -
24/01:30am 23.3 N 7 11 1004.2 - 0.0 - - - - - - -
24/01:00am 23.6 NNW 5 8 1004.5 - 0.0 - - - - - - -
24/12:30am 23.7 NNW 4 7 1005.0 - 0.0 - - - - - - -
24/12:00am 23.7 NE 7 12 1005.6 - 0.0 - - - - - - -
 
Date/Time
EDT
Temp
°C
Wind Pressure Rain since
9am
mm
Weather Cloud Vis
km
Sea
Height
m
Swell
Dir  Spd
kts
Gust
kts
hPa Trend Height
m
Period
s
Dir
23/11:30pm 24.0 N 7 11 1006.0 - 0.0 - - - - - - -
23/11:00pm 24.3 NNE 4 8 1006.5 - 0.0 - - - - - - -
23/10:30pm 24.6 N 5 10 1006.6 - 0.0 - - - - - - -
23/10:00pm 24.4 NNW 6 8 1006.4 - 0.0 - - - - - - -
23/09:30pm 23.6 N 4 10 1006.5 - 0.0 - - - - - - -
23/09:00pm 23.8 N 7 16 1006.4 - 0.0 - - - - - - -
23/08:30pm 23.9 N 5 10 1006.0 - 0.0 - - - - - - -
23/08:00pm 24.2 NE 11 20 1005.9 - 0.0 - - - - - - -
23/07:30pm 23.9 NE 8 17 1006.0 - 0.0 - - - - - - -
23/07:00pm 23.9 NNE 9 14 1005.9 - 0.0 - - - - - - -
23/06:30pm 23.9 NNE 13 20 1005.6 - 0.0 - - - - - - -
23/06:00pm 24.2 NNE 8 15 1005.5 - 0.0 - - - - - - -
23/05:30pm 24.9 NNE 7 12 1005.8 - 0.0 - - - - - - -
23/05:00pm 24.4 NE 11 16 1006.4 - 0.0 - - - - - - -
23/04:30pm 24.0 NNW 6 11 1006.8 - 0.0 - - - - - - -
23/04:00pm 24.3 NNE 10 15 1006.6 - 0.0 - - - - - - -
23/03:30pm 25.3 NE 11 17 1007.2 - 0.0 - - - - - - -
23/03:00pm 25.1 NNE 8 14 1007.5 - 0.0 - - - - - - -
23/02:30pm 25.1 NNE 12 21 1008.0 - 0.0 - - - - - - -
23/02:00pm 24.9 NNE 15 22 1008.3 - 0.0 - - - - - - -
23/01:30pm 25.2 NE 12 19 1008.7 - 0.0 - - - - - - -
23/01:00pm 24.8 NNE 18 23 1009.1 - 0.0 - - - - - - -
23/12:30pm 24.6 NNE 17 21 1009.7 - 0.0 - - - - - - -
23/12:00pm 24.3 NE 17 22 1010.1 - 0.0 - - - - - - -
23/11:30am 24.0 NNE 16 21 1010.5 - 0.0 - - - - - - -
23/11:00am 24.3 NE 13 17 1010.9 - 0.0 - - - - - - -
23/10:30am 23.5 NE 14 18 1011.4 - 0.0 - - - - - - -
23/10:00am 23.0 NE 12 16 1011.8 - 0.0 - - - - - - -
23/09:30am 22.5 NE 10 14 1012.1 - 0.0 - - - - - - -
23/09:00am 22.4 NE 8 15 1012.0 - 0.0 - - - - - - -
23/08:30am 22.4 NNE 5 10 1012.6 - 0.0 - - - - - - -
23/08:00am 21.5 N 7 10 1012.6 - 0.0 - - - - - - -
23/07:30am 20.8 N 5 7 1012.5 - 0.0 - - - - - - -
23/07:00am 19.7 N 5 8 1012.6 - 0.0 - - - - - - -
23/06:30am 19.0 N 4 6 1012.5 - 0.0 - - - - - - -
23/06:00am 18.7 N 3 5 1012.4 - 0.0 - - - - - - -
23/05:30am 18.9 N 3 5 1012.5 - 0.0 - - - - - - -
23/05:00am 19.0 N 4 5 1012.3 - 0.0 - - - - - - -
23/04:30am 18.9 CALM 0 2 1012.6 - 0.0 - - - - - - -
23/04:00am 19.2 NNW 2 4 1012.8 - 0.0 - - - - - - -
23/03:30am 19.4 N 3 4 1012.8 - 0.0 - - - - - - -
23/03:00am 19.6 N 2 4 1012.8 - 0.0 - - - - - - -
23/02:30am 20.3 N 4 7 1012.9 - 0.0 - - - - - - -
23/02:00am 20.1 N 2 3 1013.4 - 0.0 - - - - - - -
23/01:30am 20.4 N 2 4 1013.8 - 0.0 - - - - - - -
23/01:00am 20.4 N 1 2 1014.3 - 0.0 - - - - - - -
23/12:30am 20.6 N 3 4 1014.5 - 0.0 - - - - - - -
23/12:00am 21.2 NNW 4 5 1014.8 - 0.0 - - - - - - -
 
Date/Time
EDT
Temp
°C
Wind Pressure Rain since
9am
mm
Weather Cloud Vis
km
Sea
Height
m
Swell
Dir  Spd
kts
Gust
kts
hPa Trend Height
m
Period
s
Dir
22/11:30pm 21.9 N 7 12 1014.7 - 0.0 - - - - - - -
22/11:00pm 21.9 N 5 9 1014.9 - 0.0 - - - - - - -
22/10:30pm 22.1 N 7 13 1014.9 - 0.0 - - - - - - -
22/10:00pm 22.1 NNE 4 7 1015.0 - 0.0 - - - - - - -
22/09:30pm 22.3 NE 8 16 1014.7 - 0.0 - - - - - - -
22/09:00pm 22.2 NE 6 12 1014.7 - 0.0 - - - - - - -
22/08:30pm 22.4 NNE 8 14 1014.5 - 0.0 - - - - - - -
22/08:00pm 22.5 NNE 5 11 1014.3 - 0.0 - - - - - - -
22/07:30pm 22.7 NE 13 18 1014.1 - 0.0 - - - - - - -
22/07:00pm 22.8 NNE 14 20 1013.8 - 0.0 - - - - - - -
22/06:30pm 22.9 NNE 13 18 1013.9 - 0.0 - - - - - - -
22/06:00pm 23.0 NNE 12 17 1013.8 - 0.0 - - - - - - -
22/05:30pm 23.0 NNE 11 16 1013.9 - 0.0 - - - - - - -
22/05:00pm 23.2 NE 10 16 1014.3 - 0.0 - - - - - - -
22/04:30pm 23.2 NE 8 14 1014.6 - 0.0 - - - - - - -
22/04:00pm 23.0 NE 9 14 1015.0 - 0.0 - - - - - - -
22/03:30pm 22.7 NE 9 14 1015.2 - 0.0 - - - - - - -
22/03:00pm 22.9 NE 9 16 1015.5 - 0.0 - - - - - - -
22/02:30pm 22.6 NE 9 15 1015.7 - 0.0 - - - - - - -
22/02:00pm 22.9 NE 7 12 1015.9 - 0.0 - - - - - - -
22/01:30pm 23.3 ENE 7 14 1016.1 - 0.0 - - - - - - -
22/01:00pm 22.4 NE 8 13 1016.3 - 0.0 - - - - - - -
22/12:30pm 22.6 ENE 7 11 1016.6 - 0.0 - - - - - - -
22/12:00pm 22.7 ENE 6 9 1017.0 - 0.0 - - - - - - -
22/11:30am - ENE 5 8 1017.2 - 0.0 - - - - - - -
22/11:00am - NNE 6 8 1017.3 - 0.0 - - - - - - -
22/10:30am 20.8 NNE 4 7 1017.5 - 0.0 - - - - - - -
22/10:00am 21.0 NNE 4 6 1017.6 - 0.0 - - - - - - -
22/09:30am 20.7 N 3 5 1017.7 - 0.0 - - - - - - -
22/09:00am 20.6 NNE 2 4 1017.9 - 0.0 - - - - - - -
22/08:30am 20.2 N 2 4 1017.8 - 0.0 - - - - - - -
22/08:00am 19.3 NNW 3 4 1017.8 - 0.0 - - - - - - -
22/07:30am 18.6 NW 3 4 1017.6 - 0.0 - - - - - - -
22/07:00am 16.8 NW 2 2 1017.2 - 0.0 - - - - - - -
22/06:30am 16.4 NW 2 3 1017.1 - 0.0 - - - - - - -
22/06:00am 16.4 NW 2 3 1017.0 - 0.0 - - - - - - -
22/05:30am - NW 2 3 1016.8 - 0.0 - - - - - - -
22/05:00am - NW 2 3 1016.6 - 0.0 - - - - - - -
22/04:30am - NNW 1 3 1016.3 - 0.0 - - - - - - -
22/04:00am - NW 2 3 1016.3 - 0.0 - - - - - - -
22/03:30am - CALM 0 2 1016.6 - 0.0 - - - - - - -
22/03:00am - CALM 0 0 1016.8 - 0.0 - - - - - - -
22/02:30am - CALM 0 2 1017.0 - 0.0 - - - - - - -
22/02:00am - E 1 4 1017.0 - 0.0 - - - - - - -
22/01:30am - SE 2 4 1017.1 - 0.0 - - - - - - -
22/01:00am - SE 3 5 1017.2 - 0.0 - - - - - - -
22/12:30am - SE 5 7 1017.3 - 0.0 - - - - - - -
22/12:00am - SSE 7 11 1017.4 - 0.0 - - - - - - -
 
Date/Time
EDT
Temp
°C
Wind Pressure Rain since
9am
mm
Weather Cloud Vis
km
Sea
Height
m
Swell
Dir  Spd
kts
Gust
kts
hPa Trend Height
m
Period
s
Dir
21/11:30pm 19.8 SSE 8 13 1017.4 - 0.0 - - - - - - -
21/11:00pm 20.0 SSE 9 16 1017.2 - 0.0 - - - - - - -
21/10:30pm 20.1 SSE 9 15 1017.1 - 0.0 - - - - - - -
21/10:00pm 20.2 SSE 8 13 1017.1 - 0.0 - - - - - - -
21/09:30pm 20.2 SSE 8 11 1017.0 - 0.0 - - - - - - -
21/09:00pm 20.3 SSE 7 12 1016.8 - 0.0 - - - - - - -
21/08:30pm 20.2 SE 8 13 1016.4 - 0.0 - - - - - - -

Other Formats:

Comma delimited format used in spreadsheet applications
http://www.bom.gov.au/fwo/IDN60701/IDN60701.94938.axf

JavaScript Object Notation format (JSON) in row-major order
http://www.bom.gov.au/fwo/IDN60701/IDN60701.94938.json